sensor_id;sensor_type;location;lat;lon;timestamp;temperature;humidity
38938;DHT22;24727;51.974;20.868;2023-05-19T00:00:56;11.60;1.00
38938;DHT22;24727;51.974;20.868;2023-05-19T00:03:24;11.60;1.00
38938;DHT22;24727;51.974;20.868;2023-05-19T00:05:52;11.60;1.00
38938;DHT22;24727;51.974;20.868;2023-05-19T00:08:22;11.60;1.00
38938;DHT22;24727;51.974;20.868;2023-05-19T00:10:49;11.40;1.00
38938;DHT22;24727;51.974;20.868;2023-05-19T00:13:15;11.40;1.00
38938;DHT22;24727;51.974;20.868;2023-05-19T00:15:43;11.30;1.00
38938;DHT22;24727;51.974;20.868;2023-05-19T00:18:09;11.30;1.00
38938;DHT22;24727;51.974;20.868;2023-05-19T00:20:39;11.20;1.00
38938;DHT22;24727;51.974;20.868;2023-05-19T00:23:06;11.20;1.00
38938;DHT22;24727;51.974;20.868;2023-05-19T00:25:32;11.10;1.00
38938;DHT22;24727;51.974;20.868;2023-05-19T00:27:59;11.20;1.00
38938;DHT22;24727;51.974;20.868;2023-05-19T00:30:25;11.20;1.00
38938;DHT22;24727;51.974;20.868;2023-05-19T00:32:53;11.20;1.00
38938;DHT22;24727;51.974;20.868;2023-05-19T00:35:19;11.20;1.00
38938;DHT22;24727;51.974;20.868;2023-05-19T00:37:46;11.20;1.00
38938;DHT22;24727;51.974;20.868;2023-05-19T00:40:15;11.20;1.00
38938;DHT22;24727;51.974;20.868;2023-05-19T00:42:41;11.20;1.00
38938;DHT22;24727;51.974;20.868;2023-05-19T00:45:08;11.20;1.00
38938;DHT22;24727;51.974;20.868;2023-05-19T00:47:35;11.20;1.00
38938;DHT22;24727;51.974;20.868;2023-05-19T00:50:01;11.10;1.00
38938;DHT22;24727;51.974;20.868;2023-05-19T00:52:28;11.20;1.00
38938;DHT22;24727;51.974;20.868;2023-05-19T00:54:55;11.10;1.00
38938;DHT22;24727;51.974;20.868;2023-05-19T00:57:21;11.10;1.00
38938;DHT22;24727;51.974;20.868;2023-05-19T00:59:48;11.10;1.00
38938;DHT22;24727;51.974;20.868;2023-05-19T01:02:13;11.10;1.00
38938;DHT22;24727;51.974;20.868;2023-05-19T01:04:40;11.10;1.00
38938;DHT22;24727;51.974;20.868;2023-05-19T01:07:08;11.10;1.00
38938;DHT22;24727;51.974;20.868;2023-05-19T01:09:35;11.10;1.00
38938;DHT22;24727;51.974;20.868;2023-05-19T01:12:02;11.10;1.00
38938;DHT22;24727;51.974;20.868;2023-05-19T01:14:29;11.00;1.00
38938;DHT22;24727;51.974;20.868;2023-05-19T01:17:50;11.00;1.00
38938;DHT22;24727;51.974;20.868;2023-05-19T01:31:23;11.10;1.00
38938;DHT22;24727;51.974;20.868;2023-05-19T01:33:52;11.00;1.00
38938;DHT22;24727;51.974;20.868;2023-05-19T01:36:21;11.00;1.00
38938;DHT22;24727;51.974;20.868;2023-05-19T01:38:50;10.90;1.00
38938;DHT22;24727;51.974;20.868;2023-05-19T01:41:18;10.90;1.00
38938;DHT22;24727;51.974;20.868;2023-05-19T01:43:47;11.00;1.00
38938;DHT22;24727;51.974;20.868;2023-05-19T01:46:16;10.90;1.00
38938;DHT22;24727;51.974;20.868;2023-05-19T01:48:44;10.90;1.00
38938;DHT22;24727;51.974;20.868;2023-05-19T01:51:11;10.80;1.00
38938;DHT22;24727;51.974;20.868;2023-05-19T01:53:37;10.80;1.00
38938;DHT22;24727;51.974;20.868;2023-05-19T01:56:04;10.90;1.00
38938;DHT22;24727;51.974;20.868;2023-05-19T01:58:37;10.90;1.00
38938;DHT22;24727;51.974;20.868;2023-05-19T02:01:31;10.90;1.00
38938;DHT22;24727;51.974;20.868;2023-05-19T02:06:37;11.00;1.00
38938;DHT22;24727;51.974;20.868;2023-05-19T02:09:17;11.00;1.00
38938;DHT22;24727;51.974;20.868;2023-05-19T02:12:00;10.90;1.00
38938;DHT22;24727;51.974;20.868;2023-05-19T02:17:27;11.00;1.00
38938;DHT22;24727;51.974;20.868;2023-05-19T02:19:54;10.90;1.00
38938;DHT22;24727;51.974;20.868;2023-05-19T02:22:27;11.00;1.00
38938;DHT22;24727;51.974;20.868;2023-05-19T02:24:53;11.00;1.00
38938;DHT22;24727;51.974;20.868;2023-05-19T02:27:21;11.00;1.00
38938;DHT22;24727;51.974;20.868;2023-05-19T02:29:47;10.90;1.00
38938;DHT22;24727;51.974;20.868;2023-05-19T02:32:13;10.90;1.00
38938;DHT22;24727;51.974;20.868;2023-05-19T02:34:39;10.90;1.00
38938;DHT22;24727;51.974;20.868;2023-05-19T02:37:07;10.80;1.00
38938;DHT22;24727;51.974;20.868;2023-05-19T02:39:32;10.80;1.00
38938;DHT22;24727;51.974;20.868;2023-05-19T02:42:00;10.80;1.00
38938;DHT22;24727;51.974;20.868;2023-05-19T02:44:27;10.80;1.00
38938;DHT22;24727;51.974;20.868;2023-05-19T02:46:54;10.80;1.00
38938;DHT22;24727;51.974;20.868;2023-05-19T02:49:20;10.90;1.00
38938;DHT22;24727;51.974;20.868;2023-05-19T02:51:47;10.90;1.00
38938;DHT22;24727;51.974;20.868;2023-05-19T02:54:13;10.80;1.00
38938;DHT22;24727;51.974;20.868;2023-05-19T02:56:39;10.80;1.00
38938;DHT22;24727;51.974;20.868;2023-05-19T02:59:05;10.80;1.00
38938;DHT22;24727;51.974;20.868;2023-05-19T03:01:31;10.80;1.00
38938;DHT22;24727;51.974;20.868;2023-05-19T03:04:00;10.70;1.00
38938;DHT22;24727;51.974;20.868;2023-05-19T03:06:26;10.70;1.00
38938;DHT22;24727;51.974;20.868;2023-05-19T03:08:54;10.70;1.00
38938;DHT22;24727;51.974;20.868;2023-05-19T03:11:20;10.70;1.00
38938;DHT22;24727;51.974;20.868;2023-05-19T03:13:49;10.70;1.00
38938;DHT22;24727;51.974;20.868;2023-05-19T03:16:15;10.70;1.00
38938;DHT22;24727;51.974;20.868;2023-05-19T03:18:41;10.70;1.00
38938;DHT22;24727;51.974;20.868;2023-05-19T03:21:08;10.70;1.00
38938;DHT22;24727;51.974;20.868;2023-05-19T03:23:34;10.70;1.00
38938;DHT22;24727;51.974;20.868;2023-05-19T03:26:00;10.70;1.00
38938;DHT22;24727;51.974;20.868;2023-05-19T03:28:27;10.70;1.00
38938;DHT22;24727;51.974;20.868;2023-05-19T03:30:55;10.70;1.00
38938;DHT22;24727;51.974;20.868;2023-05-19T03:33:21;10.70;1.00
38938;DHT22;24727;51.974;20.868;2023-05-19T03:35:48;10.70;1.00
38938;DHT22;24727;51.974;20.868;2023-05-19T03:38:14;10.80;1.00
38938;DHT22;24727;51.974;20.868;2023-05-19T03:40:41;10.80;1.00
38938;DHT22;24727;51.974;20.868;2023-05-19T03:43:08;10.80;1.00
38938;DHT22;24727;51.974;20.868;2023-05-19T03:45:34;10.80;1.00
38938;DHT22;24727;51.974;20.868;2023-05-19T03:48:01;10.70;1.00
38938;DHT22;24727;51.974;20.868;2023-05-19T03:50:28;10.80;1.00
38938;DHT22;24727;51.974;20.868;2023-05-19T03:52:56;10.90;1.00
38938;DHT22;24727;51.974;20.868;2023-05-19T03:55:22;10.80;1.00
38938;DHT22;24727;51.974;20.868;2023-05-19T03:57:50;10.80;1.00
38938;DHT22;24727;51.974;20.868;2023-05-19T04:00:17;10.80;1.00
38938;DHT22;24727;51.974;20.868;2023-05-19T04:02:43;10.80;1.00
38938;DHT22;24727;51.974;20.868;2023-05-19T04:05:09;10.90;1.00
38938;DHT22;24727;51.974;20.868;2023-05-19T04:07:35;10.90;1.00
38938;DHT22;24727;51.974;20.868;2023-05-19T04:10:04;10.90;1.00
38938;DHT22;24727;51.974;20.868;2023-05-19T04:12:30;10.90;1.00
38938;DHT22;24727;51.974;20.868;2023-05-19T04:14:56;10.90;1.00
38938;DHT22;24727;51.974;20.868;2023-05-19T04:17:22;10.90;1.00
38938;DHT22;24727;51.974;20.868;2023-05-19T04:19:53;10.90;1.00
38938;DHT22;24727;51.974;20.868;2023-05-19T04:22:20;10.90;1.00
38938;DHT22;24727;51.974;20.868;2023-05-19T04:24:46;10.80;1.00
38938;DHT22;24727;51.974;20.868;2023-05-19T04:27:13;10.80;1.00
38938;DHT22;24727;51.974;20.868;2023-05-19T04:29:41;10.70;1.00
38938;DHT22;24727;51.974;20.868;2023-05-19T04:32:07;10.80;1.00
38938;DHT22;24727;51.974;20.868;2023-05-19T04:34:34;10.80;1.00
38938;DHT22;24727;51.974;20.868;2023-05-19T04:37:01;10.80;1.00
38938;DHT22;24727;51.974;20.868;2023-05-19T04:39:28;10.80;1.00
38938;DHT22;24727;51.974;20.868;2023-05-19T04:41:55;10.80;1.00
38938;DHT22;24727;51.974;20.868;2023-05-19T04:44:21;10.80;1.00
38938;DHT22;24727;51.974;20.868;2023-05-19T04:46:49;10.80;1.00
38938;DHT22;24727;51.974;20.868;2023-05-19T04:49:19;10.90;1.00
38938;DHT22;24727;51.974;20.868;2023-05-19T04:51:46;10.80;1.00
38938;DHT22;24727;51.974;20.868;2023-05-19T04:54:15;10.80;1.00
38938;DHT22;24727;51.974;20.868;2023-05-19T04:56:41;10.80;1.00
38938;DHT22;24727;51.974;20.868;2023-05-19T04:59:08;10.90;1.00
38938;DHT22;24727;51.974;20.868;2023-05-19T05:01:35;10.90;1.00
38938;DHT22;24727;51.974;20.868;2023-05-19T05:04:06;10.90;1.00
38938;DHT22;24727;51.974;20.868;2023-05-19T05:06:33;10.90;1.00
38938;DHT22;24727;51.974;20.868;2023-05-19T05:08:59;10.90;1.00
38938;DHT22;24727;51.974;20.868;2023-05-19T05:11:25;10.80;1.00
38938;DHT22;24727;51.974;20.868;2023-05-19T05:13:52;10.90;1.00
38938;DHT22;24727;51.974;20.868;2023-05-19T05:16:18;10.90;1.00
38938;DHT22;24727;51.974;20.868;2023-05-19T05:18:45;11.00;1.00
38938;DHT22;24727;51.974;20.868;2023-05-19T05:21:11;11.00;1.00
38938;DHT22;24727;51.974;20.868;2023-05-19T05:23:38;11.10;1.00
38938;DHT22;24727;51.974;20.868;2023-05-19T05:26:09;11.20;1.00
38938;DHT22;24727;51.974;20.868;2023-05-19T05:28:37;11.30;1.00
38938;DHT22;24727;51.974;20.868;2023-05-19T05:31:03;11.10;1.00
38938;DHT22;24727;51.974;20.868;2023-05-19T05:33:30;11.10;1.00
38938;DHT22;24727;51.974;20.868;2023-05-19T05:35:58;11.10;1.00
38938;DHT22;24727;51.974;20.868;2023-05-19T05:38:23;11.20;1.00
38938;DHT22;24727;51.974;20.868;2023-05-19T05:40:49;11.20;1.00
38938;DHT22;24727;51.974;20.868;2023-05-19T05:43:16;11.30;1.00
38938;DHT22;24727;51.974;20.868;2023-05-19T05:45:43;11.20;1.00
38938;DHT22;24727;51.974;20.868;2023-05-19T05:48:11;11.20;1.00
38938;DHT22;24727;51.974;20.868;2023-05-19T05:50:42;11.20;1.00
38938;DHT22;24727;51.974;20.868;2023-05-19T05:53:14;11.20;1.00
38938;DHT22;24727;51.974;20.868;2023-05-19T05:55:43;11.10;1.00
38938;DHT22;24727;51.974;20.868;2023-05-19T05:58:09;11.10;1.00
38938;DHT22;24727;51.974;20.868;2023-05-19T06:00:37;11.20;1.00
38938;DHT22;24727;51.974;20.868;2023-05-19T06:03:03;11.10;1.00
38938;DHT22;24727;51.974;20.868;2023-05-19T06:05:30;11.20;1.00
38938;DHT22;24727;51.974;20.868;2023-05-19T06:07:56;11.20;1.00
38938;DHT22;24727;51.974;20.868;2023-05-19T06:10:23;11.30;1.00
38938;DHT22;24727;51.974;20.868;2023-05-19T06:12:49;11.30;1.00
38938;DHT22;24727;51.974;20.868;2023-05-19T06:15:15;11.30;1.00
38938;DHT22;24727;51.974;20.868;2023-05-19T06:17:41;11.40;1.00
38938;DHT22;24727;51.974;20.868;2023-05-19T06:20:08;11.50;1.00
38938;DHT22;24727;51.974;20.868;2023-05-19T06:22:34;11.50;1.00
38938;DHT22;24727;51.974;20.868;2023-05-19T06:25:01;11.50;1.00
38938;DHT22;24727;51.974;20.868;2023-05-19T06:27:26;11.30;1.00
38938;DHT22;24727;51.974;20.868;2023-05-19T06:29:52;11.30;1.00
38938;DHT22;24727;51.974;20.868;2023-05-19T06:32:19;11.30;1.00
38938;DHT22;24727;51.974;20.868;2023-05-19T06:34:46;11.40;1.00
38938;DHT22;24727;51.974;20.868;2023-05-19T06:37:20;11.40;1.00
38938;DHT22;24727;51.974;20.868;2023-05-19T06:39:56;11.40;1.00
38938;DHT22;24727;51.974;20.868;2023-05-19T06:42:22;11.50;1.00
38938;DHT22;24727;51.974;20.868;2023-05-19T06:44:50;11.50;1.00
38938;DHT22;24727;51.974;20.868;2023-05-19T06:47:18;11.50;1.00
38938;DHT22;24727;51.974;20.868;2023-05-19T06:49:44;11.60;1.00
38938;DHT22;24727;51.974;20.868;2023-05-19T06:52:10;11.70;1.00
38938;DHT22;24727;51.974;20.868;2023-05-19T06:54:37;11.70;1.00
38938;DHT22;24727;51.974;20.868;2023-05-19T06:57:03;11.60;1.00
38938;DHT22;24727;51.974;20.868;2023-05-19T06:59:29;11.60;1.00
38938;DHT22;24727;51.974;20.868;2023-05-19T07:01:56;11.80;1.00
38938;DHT22;24727;51.974;20.868;2023-05-19T07:04:22;11.80;1.00
38938;DHT22;24727;51.974;20.868;2023-05-19T07:06:48;11.90;1.00
38938;DHT22;24727;51.974;20.868;2023-05-19T07:09:15;11.80;1.00
38938;DHT22;24727;51.974;20.868;2023-05-19T07:11:41;11.80;1.00
38938;DHT22;24727;51.974;20.868;2023-05-19T07:14:08;11.90;1.00
38938;DHT22;24727;51.974;20.868;2023-05-19T07:16:35;11.80;1.00
38938;DHT22;24727;51.974;20.868;2023-05-19T07:19:01;11.70;1.00
38938;DHT22;24727;51.974;20.868;2023-05-19T07:21:28;11.80;1.00
38938;DHT22;24727;51.974;20.868;2023-05-19T07:23:55;11.80;1.00
38938;DHT22;24727;51.974;20.868;2023-05-19T07:26:21;11.80;1.00
38938;DHT22;24727;51.974;20.868;2023-05-19T07:28:47;12.00;1.00
38938;DHT22;24727;51.974;20.868;2023-05-19T07:31:15;12.00;1.00
38938;DHT22;24727;51.974;20.868;2023-05-19T07:33:41;12.10;1.00
38938;DHT22;24727;51.974;20.868;2023-05-19T07:36:07;12.00;1.00
38938;DHT22;24727;51.974;20.868;2023-05-19T07:38:34;12.20;1.00
38938;DHT22;24727;51.974;20.868;2023-05-19T07:41:03;12.10;1.00
38938;DHT22;24727;51.974;20.868;2023-05-19T07:43:30;12.20;1.00
38938;DHT22;24727;51.974;20.868;2023-05-19T07:45:56;12.20;1.00
38938;DHT22;24727;51.974;20.868;2023-05-19T07:48:26;12.30;1.00
38938;DHT22;24727;51.974;20.868;2023-05-19T07:50:52;12.20;1.00
38938;DHT22;24727;51.974;20.868;2023-05-19T07:53:19;12.20;1.00
38938;DHT22;24727;51.974;20.868;2023-05-19T07:55:47;12.30;1.00
38938;DHT22;24727;51.974;20.868;2023-05-19T07:58:14;12.20;1.00
38938;DHT22;24727;51.974;20.868;2023-05-19T08:00:42;12.30;1.00
38938;DHT22;24727;51.974;20.868;2023-05-19T08:03:08;12.30;1.00
38938;DHT22;24727;51.974;20.868;2023-05-19T08:05:35;12.30;1.00
38938;DHT22;24727;51.974;20.868;2023-05-19T08:08:02;12.30;1.00
38938;DHT22;24727;51.974;20.868;2023-05-19T08:10:30;12.30;1.00
38938;DHT22;24727;51.974;20.868;2023-05-19T08:12:56;12.40;1.00
38938;DHT22;24727;51.974;20.868;2023-05-19T08:15:23;12.40;1.00
38938;DHT22;24727;51.974;20.868;2023-05-19T08:17:50;12.30;1.00
38938;DHT22;24727;51.974;20.868;2023-05-19T08:20:16;12.30;1.00
38938;DHT22;24727;51.974;20.868;2023-05-19T08:22:43;12.40;1.00
38938;DHT22;24727;51.974;20.868;2023-05-19T08:25:11;12.30;1.00
38938;DHT22;24727;51.974;20.868;2023-05-19T08:27:41;12.40;1.00
38938;DHT22;24727;51.974;20.868;2023-05-19T08:30:09;12.30;1.00
38938;DHT22;24727;51.974;20.868;2023-05-19T08:32:35;12.30;1.00
38938;DHT22;24727;51.974;20.868;2023-05-19T08:35:02;12.50;1.00
38938;DHT22;24727;51.974;20.868;2023-05-19T08:37:29;12.70;1.00
38938;DHT22;24727;51.974;20.868;2023-05-19T08:39:55;12.70;1.00
38938;DHT22;24727;51.974;20.868;2023-05-19T08:42:22;12.60;1.00
38938;DHT22;24727;51.974;20.868;2023-05-19T08:44:49;12.70;1.00
38938;DHT22;24727;51.974;20.868;2023-05-19T08:47:15;12.60;1.00
38938;DHT22;24727;51.974;20.868;2023-05-19T08:49:46;12.60;1.00
38938;DHT22;24727;51.974;20.868;2023-05-19T08:52:26;12.60;1.00
38938;DHT22;24727;51.974;20.868;2023-05-19T08:55:03;12.70;1.00
38938;DHT22;24727;51.974;20.868;2023-05-19T08:57:29;12.90;1.00
38938;DHT22;24727;51.974;20.868;2023-05-19T09:00:00;13.00;1.00
38938;DHT22;24727;51.974;20.868;2023-05-19T09:02:27;13.00;1.00
38938;DHT22;24727;51.974;20.868;2023-05-19T09:04:55;13.00;1.00
38938;DHT22;24727;51.974;20.868;2023-05-19T09:07:23;12.90;1.00
38938;DHT22;24727;51.974;20.868;2023-05-19T09:09:50;12.90;1.00
38938;DHT22;24727;51.974;20.868;2023-05-19T09:12:17;12.90;1.00
38938;DHT22;24727;51.974;20.868;2023-05-19T09:14:43;12.80;1.00
38938;DHT22;24727;51.974;20.868;2023-05-19T09:17:10;12.80;1.00
38938;DHT22;24727;51.974;20.868;2023-05-19T09:19:42;12.90;1.00
38938;DHT22;24727;51.974;20.868;2023-05-19T09:22:08;13.00;1.00
38938;DHT22;24727;51.974;20.868;2023-05-19T09:24:34;13.10;1.00
38938;DHT22;24727;51.974;20.868;2023-05-19T09:27:01;13.20;1.00
38938;DHT22;24727;51.974;20.868;2023-05-19T09:29:26;13.30;1.00
38938;DHT22;24727;51.974;20.868;2023-05-19T09:31:55;13.40;1.00
38938;DHT22;24727;51.974;20.868;2023-05-19T09:34:25;13.50;1.00
38938;DHT22;24727;51.974;20.868;2023-05-19T09:36:52;13.30;1.00
38938;DHT22;24727;51.974;20.868;2023-05-19T09:39:20;13.30;1.00
38938;DHT22;24727;51.974;20.868;2023-05-19T09:41:46;13.30;1.00
38938;DHT22;24727;51.974;20.868;2023-05-19T09:44:26;13.40;1.00
38938;DHT22;24727;51.974;20.868;2023-05-19T09:46:57;13.40;1.00
38938;DHT22;24727;51.974;20.868;2023-05-19T09:49:27;13.50;1.00
38938;DHT22;24727;51.974;20.868;2023-05-19T09:51:59;13.60;1.00
38938;DHT22;24727;51.974;20.868;2023-05-19T09:54:27;13.60;1.00
38938;DHT22;24727;51.974;20.868;2023-05-19T09:59:25;13.60;1.00
38938;DHT22;24727;51.974;20.868;2023-05-19T10:01:57;13.80;1.00
38938;DHT22;24727;51.974;20.868;2023-05-19T10:04:26;13.80;1.00
38938;DHT22;24727;51.974;20.868;2023-05-19T10:06:54;14.00;1.00
38938;DHT22;24727;51.974;20.868;2023-05-19T10:09:24;13.80;1.00
38938;DHT22;24727;51.974;20.868;2023-05-19T10:11:52;13.80;1.00
38938;DHT22;24727;51.974;20.868;2023-05-19T10:14:24;13.80;1.00
38938;DHT22;24727;51.974;20.868;2023-05-19T10:16:51;13.80;1.00
38938;DHT22;24727;51.974;20.868;2023-05-19T10:19:27;13.90;1.00
38938;DHT22;24727;51.974;20.868;2023-05-19T10:21:54;13.90;1.00
38938;DHT22;24727;51.974;20.868;2023-05-19T10:24:20;14.00;1.00
38938;DHT22;24727;51.974;20.868;2023-05-19T10:29:29;14.00;1.00
38938;DHT22;24727;51.974;20.868;2023-05-19T10:32:03;14.00;1.00
38938;DHT22;24727;51.974;20.868;2023-05-19T10:38:03;14.20;1.00
38938;DHT22;24727;51.974;20.868;2023-05-19T10:41:08;14.20;1.00
38938;DHT22;24727;51.974;20.868;2023-05-19T10:46:09;14.50;1.00
38938;DHT22;24727;51.974;20.868;2023-05-19T10:48:36;14.60;1.00
38938;DHT22;24727;51.974;20.868;2023-05-19T10:51:03;14.60;1.00
38938;DHT22;24727;51.974;20.868;2023-05-19T10:53:33;14.50;1.00
38938;DHT22;24727;51.974;20.868;2023-05-19T10:56:03;14.40;1.00
38938;DHT22;24727;51.974;20.868;2023-05-19T11:01:16;14.30;1.00
38938;DHT22;24727;51.974;20.868;2023-05-19T11:03:53;14.50;1.00
38938;DHT22;24727;51.974;20.868;2023-05-19T11:06:33;14.60;1.00
38938;DHT22;24727;51.974;20.868;2023-05-19T11:11:53;14.90;1.00
38938;DHT22;24727;51.974;20.868;2023-05-19T11:14:25;15.00;1.00
38938;DHT22;24727;51.974;20.868;2023-05-19T11:16:52;15.00;1.00
38938;DHT22;24727;51.974;20.868;2023-05-19T11:19:24;14.90;1.00
38938;DHT22;24727;51.974;20.868;2023-05-19T11:21:53;14.90;1.00
38938;DHT22;24727;51.974;20.868;2023-05-19T11:24:42;15.00;1.00
38938;DHT22;24727;51.974;20.868;2023-05-19T11:32:36;14.80;1.00
38938;DHT22;24727;51.974;20.868;2023-05-19T11:35:08;15.00;1.00
38938;DHT22;24727;51.974;20.868;2023-05-19T11:37:35;15.00;1.00
38938;DHT22;24727;51.974;20.868;2023-05-19T11:40:03;15.10;1.00
38938;DHT22;24727;51.974;20.868;2023-05-19T11:42:31;15.20;1.00
38938;DHT22;24727;51.974;20.868;2023-05-19T11:44:59;15.30;1.00
38938;DHT22;24727;51.974;20.868;2023-05-19T11:47:26;15.10;1.00
38938;DHT22;24727;51.974;20.868;2023-05-19T11:49:54;14.90;1.00
38938;DHT22;24727;51.974;20.868;2023-05-19T11:52:24;14.80;1.00
38938;DHT22;24727;51.974;20.868;2023-05-19T11:54:52;14.90;1.00
38938;DHT22;24727;51.974;20.868;2023-05-19T11:57:18;14.80;1.00
38938;DHT22;24727;51.974;20.868;2023-05-19T11:59:45;15.00;1.00
38938;DHT22;24727;51.974;20.868;2023-05-19T12:02:23;15.20;1.00
38938;DHT22;24727;51.974;20.868;2023-05-19T12:04:50;14.80;1.00
38938;DHT22;24727;51.974;20.868;2023-05-19T12:07:18;14.60;1.00
38938;DHT22;24727;51.974;20.868;2023-05-19T12:09:46;14.70;1.00
38938;DHT22;24727;51.974;20.868;2023-05-19T12:12:16;14.90;1.00
38938;DHT22;24727;51.974;20.868;2023-05-19T12:14:45;15.00;1.00
38938;DHT22;24727;51.974;20.868;2023-05-19T12:17:13;15.10;1.00
38938;DHT22;24727;51.974;20.868;2023-05-19T12:19:42;15.10;1.00
38938;DHT22;24727;51.974;20.868;2023-05-19T12:22:08;15.00;1.00
38938;DHT22;24727;51.974;20.868;2023-05-19T12:24:35;15.20;1.00
38938;DHT22;24727;51.974;20.868;2023-05-19T12:27:23;15.30;1.00
38938;DHT22;24727;51.974;20.868;2023-05-19T12:29:53;15.60;1.00
38938;DHT22;24727;51.974;20.868;2023-05-19T12:32:28;15.60;1.00
38938;DHT22;24727;51.974;20.868;2023-05-19T12:34:57;15.60;1.00
38938;DHT22;24727;51.974;20.868;2023-05-19T12:37:26;15.70;1.00
38938;DHT22;24727;51.974;20.868;2023-05-19T12:39:55;15.70;1.00
38938;DHT22;24727;51.974;20.868;2023-05-19T12:42:22;15.70;1.00
38938;DHT22;24727;51.974;20.868;2023-05-19T12:44:50;15.70;1.00
38938;DHT22;24727;51.974;20.868;2023-05-19T12:47:18;15.60;1.00
38938;DHT22;24727;51.974;20.868;2023-05-19T12:50:06;15.50;1.00
38938;DHT22;24727;51.974;20.868;2023-05-19T12:52:40;15.30;1.00
38938;DHT22;24727;51.974;20.868;2023-05-19T12:55:08;15.10;1.00
38938;DHT22;24727;51.974;20.868;2023-05-19T12:57:38;15.40;1.00
38938;DHT22;24727;51.974;20.868;2023-05-19T13:00:13;15.50;1.00
38938;DHT22;24727;51.974;20.868;2023-05-19T13:03:01;15.60;1.00
38938;DHT22;24727;51.974;20.868;2023-05-19T13:05:32;15.60;1.00
38938;DHT22;24727;51.974;20.868;2023-05-19T13:08:01;15.60;1.00
38938;DHT22;24727;51.974;20.868;2023-05-19T13:10:28;15.80;1.00
38938;DHT22;24727;51.974;20.868;2023-05-19T13:12:55;15.70;1.00
38938;DHT22;24727;51.974;20.868;2023-05-19T13:15:22;15.80;1.00
38938;DHT22;24727;51.974;20.868;2023-05-19T13:17:52;15.70;1.00
38938;DHT22;24727;51.974;20.868;2023-05-19T13:20:20;15.70;1.00
38938;DHT22;24727;51.974;20.868;2023-05-19T13:22:47;15.70;1.00
38938;DHT22;24727;51.974;20.868;2023-05-19T13:25:13;15.80;1.00
38938;DHT22;24727;51.974;20.868;2023-05-19T13:27:42;15.70;1.00
38938;DHT22;24727;51.974;20.868;2023-05-19T13:30:09;15.70;1.00
38938;DHT22;24727;51.974;20.868;2023-05-19T13:32:35;15.60;1.00
38938;DHT22;24727;51.974;20.868;2023-05-19T13:35:01;15.70;1.00
38938;DHT22;24727;51.974;20.868;2023-05-19T13:37:28;15.70;1.00
38938;DHT22;24727;51.974;20.868;2023-05-19T13:39:54;15.80;1.00
38938;DHT22;24727;51.974;20.868;2023-05-19T13:42:24;15.60;1.00
38938;DHT22;24727;51.974;20.868;2023-05-19T13:44:56;15.60;1.00
38938;DHT22;24727;51.974;20.868;2023-05-19T13:47:24;15.70;1.00
38938;DHT22;24727;51.974;20.868;2023-05-19T13:49:52;15.70;1.00
38938;DHT22;24727;51.974;20.868;2023-05-19T13:52:21;15.60;1.00
38938;DHT22;24727;51.974;20.868;2023-05-19T13:54:48;15.70;1.00
38938;DHT22;24727;51.974;20.868;2023-05-19T13:57:17;15.80;1.00
38938;DHT22;24727;51.974;20.868;2023-05-19T13:59:44;16.00;1.00
38938;DHT22;24727;51.974;20.868;2023-05-19T14:02:11;16.10;1.00
38938;DHT22;24727;51.974;20.868;2023-05-19T14:04:38;16.00;1.00
38938;DHT22;24727;51.974;20.868;2023-05-19T14:07:06;15.90;1.00
38938;DHT22;24727;51.974;20.868;2023-05-19T14:09:32;15.90;1.00
38938;DHT22;24727;51.974;20.868;2023-05-19T14:12:02;15.90;1.00
38938;DHT22;24727;51.974;20.868;2023-05-19T14:14:28;16.00;1.00
38938;DHT22;24727;51.974;20.868;2023-05-19T14:16:55;15.80;1.00
38938;DHT22;24727;51.974;20.868;2023-05-19T14:19:21;15.80;1.00
38938;DHT22;24727;51.974;20.868;2023-05-19T14:21:49;15.90;1.00
38938;DHT22;24727;51.974;20.868;2023-05-19T14:24:16;16.00;1.00
38938;DHT22;24727;51.974;20.868;2023-05-19T14:26:43;15.90;1.00
38938;DHT22;24727;51.974;20.868;2023-05-19T14:29:09;16.00;1.00
38938;DHT22;24727;51.974;20.868;2023-05-19T14:31:35;16.00;1.00
38938;DHT22;24727;51.974;20.868;2023-05-19T14:34:01;16.10;1.00
38938;DHT22;24727;51.974;20.868;2023-05-19T14:36:26;16.00;1.00
38938;DHT22;24727;51.974;20.868;2023-05-19T14:38:52;16.00;1.00
38938;DHT22;24727;51.974;20.868;2023-05-19T14:41:19;16.00;1.00
38938;DHT22;24727;51.974;20.868;2023-05-19T14:43:46;16.00;1.00
38938;DHT22;24727;51.974;20.868;2023-05-19T14:46:12;16.10;1.00
38938;DHT22;24727;51.974;20.868;2023-05-19T14:48:38;16.00;1.00
38938;DHT22;24727;51.974;20.868;2023-05-19T14:51:04;16.10;1.00
38938;DHT22;24727;51.974;20.868;2023-05-19T14:53:32;16.20;1.00
38938;DHT22;24727;51.974;20.868;2023-05-19T14:55:57;16.00;1.00
38938;DHT22;24727;51.974;20.868;2023-05-19T14:58:23;16.00;1.00
38938;DHT22;24727;51.974;20.868;2023-05-19T15:00:51;16.00;1.00
38938;DHT22;24727;51.974;20.868;2023-05-19T15:03:17;15.90;1.00
38938;DHT22;24727;51.974;20.868;2023-05-19T15:05:44;15.90;1.00
38938;DHT22;24727;51.974;20.868;2023-05-19T15:08:10;15.90;1.00
38938;DHT22;24727;51.974;20.868;2023-05-19T15:10:37;15.80;1.00
38938;DHT22;24727;51.974;20.868;2023-05-19T15:13:03;15.80;1.00
38938;DHT22;24727;51.974;20.868;2023-05-19T15:15:29;15.80;1.00
38938;DHT22;24727;51.974;20.868;2023-05-19T15:17:57;15.60;1.00
38938;DHT22;24727;51.974;20.868;2023-05-19T15:20:23;15.50;1.00
38938;DHT22;24727;51.974;20.868;2023-05-19T15:22:49;15.50;1.00
38938;DHT22;24727;51.974;20.868;2023-05-19T15:25:15;15.70;1.00
38938;DHT22;24727;51.974;20.868;2023-05-19T15:27:41;15.70;1.00
38938;DHT22;24727;51.974;20.868;2023-05-19T15:30:08;15.70;1.00
38938;DHT22;24727;51.974;20.868;2023-05-19T15:32:34;15.70;1.00
38938;DHT22;24727;51.974;20.868;2023-05-19T15:35:00;15.60;1.00
38938;DHT22;24727;51.974;20.868;2023-05-19T15:37:26;15.60;1.00
38938;DHT22;24727;51.974;20.868;2023-05-19T15:39:52;15.70;1.00
38938;DHT22;24727;51.974;20.868;2023-05-19T15:42:19;15.80;1.00
38938;DHT22;24727;51.974;20.868;2023-05-19T15:44:46;15.80;1.00
38938;DHT22;24727;51.974;20.868;2023-05-19T15:47:12;15.80;1.00
38938;DHT22;24727;51.974;20.868;2023-05-19T15:49:38;15.90;1.00
38938;DHT22;24727;51.974;20.868;2023-05-19T15:52:04;15.90;1.00
38938;DHT22;24727;51.974;20.868;2023-05-19T15:54:31;15.80;1.00
38938;DHT22;24727;51.974;20.868;2023-05-19T15:56:57;15.90;1.00
38938;DHT22;24727;51.974;20.868;2023-05-19T15:59:25;15.80;1.00
38938;DHT22;24727;51.974;20.868;2023-05-19T16:01:51;15.80;1.00
38938;DHT22;24727;51.974;20.868;2023-05-19T16:04:16;15.90;1.00
38938;DHT22;24727;51.974;20.868;2023-05-19T16:06:50;15.80;1.00
38938;DHT22;24727;51.974;20.868;2023-05-19T16:09:16;15.80;1.00
38938;DHT22;24727;51.974;20.868;2023-05-19T16:11:42;15.70;1.00
38938;DHT22;24727;51.974;20.868;2023-05-19T16:14:08;15.70;1.00